Fukue Airport Goto JP
ICAO: RJFE
IATA:
Category: Medium
Scheduled Services:

Elevation: 273 ft
TransAlt. 0 ft.

Airport Communications:
RDO:118.35

RJFE Zoom In..

If you have problems with the map follow the link
https://www.worldairports.se/pages/airport.php?
ICAO=RJFE

Runways:

(A) RW 03 length 6562 ft width 148 ft
LOC 109.70 / hdg 32

(B) RW 21 length 6562 ft width 148 ft
LOC 109.70 / hdg 212

Location; RJFE
Day. 13 / Time. 10.00 Zulu
* QNH: 1027
* Temperature: 10° c. 50°f.
* Wind from: 310° Speed 08 kn.
Dewpoint: 02° c.
Visibility: 10 km or more.
Clouds: Few 3000 ft.
Clouds: Scattered 4000 ft.
Clouds: Broken 4500 ft.

RJFE 131000Z 31008KT 270V360 9999 FEW030 SCT040 BKN045 10/02 Q1027


Wind From 310°
Speed 08 kn.

 
 
jpsmedia.com for Web Design worldairports.se 2018   terms of use